sensor_id;sensor_type;location;lat;lon;timestamp;P1;durP1;ratioP1;P2;durP2;ratioP2
8819;SDS011;4446;50.876;4.736;2024-03-17T00:01:35;3.90;;;2.78;;
8819;SDS011;4446;50.876;4.736;2024-03-17T00:04:04;3.90;;;2.72;;
8819;SDS011;4446;50.876;4.736;2024-03-17T00:06:30;3.47;;;2.60;;
8819;SDS011;4446;50.876;4.736;2024-03-17T00:08:57;4.05;;;2.80;;
8819;SDS011;4446;50.876;4.736;2024-03-17T00:11:23;4.07;;;3.00;;
8819;SDS011;4446;50.876;4.736;2024-03-17T00:13:50;3.80;;;2.70;;
8819;SDS011;4446;50.876;4.736;2024-03-17T00:16:17;5.75;;;3.65;;
8819;SDS011;4446;50.876;4.736;2024-03-17T00:18:44;3.63;;;2.92;;
8819;SDS011;4446;50.876;4.736;2024-03-17T00:21:12;4.70;;;2.90;;
8819;SDS011;4446;50.876;4.736;2024-03-17T00:23:38;10.02;;;4.20;;
8819;SDS011;4446;50.876;4.736;2024-03-17T00:26:05;7.07;;;3.67;;
8819;SDS011;4446;50.876;4.736;2024-03-17T00:28:31;5.78;;;3.70;;
8819;SDS011;4446;50.876;4.736;2024-03-17T00:30:58;7.28;;;4.30;;
8819;SDS011;4446;50.876;4.736;2024-03-17T00:33:24;6.35;;;3.85;;
8819;SDS011;4446;50.876;4.736;2024-03-17T00:35:51;6.82;;;3.67;;
8819;SDS011;4446;50.876;4.736;2024-03-17T00:38:19;6.88;;;3.95;;
8819;SDS011;4446;50.876;4.736;2024-03-17T00:40:46;5.07;;;3.28;;
8819;SDS011;4446;50.876;4.736;2024-03-17T00:43:14;5.03;;;3.88;;
8819;SDS011;4446;50.876;4.736;2024-03-17T00:45:41;5.97;;;3.30;;
8819;SDS011;4446;50.876;4.736;2024-03-17T00:48:07;5.28;;;3.60;;
8819;SDS011;4446;50.876;4.736;2024-03-17T00:50:34;9.07;;;3.90;;
8819;SDS011;4446;50.876;4.736;2024-03-17T00:53:00;5.05;;;3.63;;
8819;SDS011;4446;50.876;4.736;2024-03-17T00:55:29;5.05;;;3.38;;
8819;SDS011;4446;50.876;4.736;2024-03-17T00:57:56;5.38;;;3.08;;
8819;SDS011;4446;50.876;4.736;2024-03-17T01:00:22;5.28;;;3.50;;
8819;SDS011;4446;50.876;4.736;2024-03-17T01:02:48;6.15;;;3.72;;
8819;SDS011;4446;50.876;4.736;2024-03-17T01:05:15;4.97;;;3.50;;
8819;SDS011;4446;50.876;4.736;2024-03-17T01:07:41;6.95;;;3.75;;
8819;SDS011;4446;50.876;4.736;2024-03-17T01:10:09;4.13;;;3.17;;
8819;SDS011;4446;50.876;4.736;2024-03-17T01:12:36;7.20;;;4.43;;
8819;SDS011;4446;50.876;4.736;2024-03-17T01:15:04;4.63;;;3.60;;
8819;SDS011;4446;50.876;4.736;2024-03-17T01:17:30;5.13;;;3.60;;
8819;SDS011;4446;50.876;4.736;2024-03-17T01:19:57;5.53;;;3.42;;
8819;SDS011;4446;50.876;4.736;2024-03-17T01:22:24;5.35;;;3.60;;
8819;SDS011;4446;50.876;4.736;2024-03-17T01:24:51;5.03;;;3.40;;
8819;SDS011;4446;50.876;4.736;2024-03-17T01:27:17;5.47;;;3.35;;
8819;SDS011;4446;50.876;4.736;2024-03-17T01:29:45;4.38;;;3.33;;
8819;SDS011;4446;50.876;4.736;2024-03-17T01:32:11;4.68;;;3.40;;
8819;SDS011;4446;50.876;4.736;2024-03-17T01:34:38;4.88;;;3.40;;
8819;SDS011;4446;50.876;4.736;2024-03-17T01:37:04;4.32;;;3.38;;
8819;SDS011;4446;50.876;4.736;2024-03-17T01:39:31;4.45;;;2.95;;
8819;SDS011;4446;50.876;4.736;2024-03-17T01:41:58;6.97;;;3.80;;
8819;SDS011;4446;50.876;4.736;2024-03-17T01:44:26;4.38;;;3.47;;
8819;SDS011;4446;50.876;4.736;2024-03-17T01:46:56;4.43;;;3.30;;
8819;SDS011;4446;50.876;4.736;2024-03-17T01:49:23;5.70;;;3.78;;
8819;SDS011;4446;50.876;4.736;2024-03-17T01:51:51;4.70;;;3.42;;
8819;SDS011;4446;50.876;4.736;2024-03-17T01:54:19;4.93;;;3.72;;
8819;SDS011;4446;50.876;4.736;2024-03-17T01:56:48;5.13;;;3.67;;
8819;SDS011;4446;50.876;4.736;2024-03-17T01:59:15;4.03;;;2.90;;
8819;SDS011;4446;50.876;4.736;2024-03-17T02:01:43;8.43;;;4.32;;
8819;SDS011;4446;50.876;4.736;2024-03-17T02:04:12;4.32;;;3.15;;
8819;SDS011;4446;50.876;4.736;2024-03-17T02:06:38;6.35;;;3.88;;
8819;SDS011;4446;50.876;4.736;2024-03-17T02:09:06;4.80;;;3.65;;
8819;SDS011;4446;50.876;4.736;2024-03-17T02:11:33;5.50;;;3.05;;
8819;SDS011;4446;50.876;4.736;2024-03-17T02:14:00;5.45;;;4.00;;
8819;SDS011;4446;50.876;4.736;2024-03-17T02:16:27;6.10;;;4.20;;
8819;SDS011;4446;50.876;4.736;2024-03-17T02:18:54;6.43;;;4.15;;
8819;SDS011;4446;50.876;4.736;2024-03-17T02:21:23;6.32;;;3.78;;
8819;SDS011;4446;50.876;4.736;2024-03-17T02:23:51;4.75;;;3.42;;
8819;SDS011;4446;50.876;4.736;2024-03-17T02:26:18;5.35;;;3.58;;
8819;SDS011;4446;50.876;4.736;2024-03-17T02:28:46;6.10;;;3.65;;
8819;SDS011;4446;50.876;4.736;2024-03-17T02:31:14;5.70;;;4.00;;
8819;SDS011;4446;50.876;4.736;2024-03-17T02:33:40;6.72;;;4.55;;
8819;SDS011;4446;50.876;4.736;2024-03-17T02:36:08;5.97;;;3.63;;
8819;SDS011;4446;50.876;4.736;2024-03-17T02:38:37;5.90;;;4.07;;
8819;SDS011;4446;50.876;4.736;2024-03-17T02:41:23;6.13;;;3.92;;
8819;SDS011;4446;50.876;4.736;2024-03-17T02:43:51;5.70;;;4.00;;
8819;SDS011;4446;50.876;4.736;2024-03-17T02:46:18;5.22;;;4.00;;
8819;SDS011;4446;50.876;4.736;2024-03-17T02:48:46;7.07;;;4.10;;
8819;SDS011;4446;50.876;4.736;2024-03-17T02:51:14;4.97;;;3.55;;
8819;SDS011;4446;50.876;4.736;2024-03-17T02:53:43;6.25;;;4.20;;
8819;SDS011;4446;50.876;4.736;2024-03-17T02:56:10;5.82;;;3.92;;
8819;SDS011;4446;50.876;4.736;2024-03-17T02:58:39;7.03;;;4.03;;
8819;SDS011;4446;50.876;4.736;2024-03-17T03:01:07;7.97;;;4.50;;
8819;SDS011;4446;50.876;4.736;2024-03-17T03:03:35;5.90;;;4.00;;
8819;SDS011;4446;50.876;4.736;2024-03-17T03:06:02;7.40;;;4.43;;
8819;SDS011;4446;50.876;4.736;2024-03-17T03:08:34;9.25;;;4.25;;
8819;SDS011;4446;50.876;4.736;2024-03-17T03:11:02;8.77;;;3.72;;
8819;SDS011;4446;50.876;4.736;2024-03-17T03:13:30;5.97;;;4.00;;
8819;SDS011;4446;50.876;4.736;2024-03-17T03:15:58;6.80;;;4.07;;
8819;SDS011;4446;50.876;4.736;2024-03-17T03:18:25;7.50;;;4.05;;
8819;SDS011;4446;50.876;4.736;2024-03-17T03:20:52;7.43;;;3.90;;
8819;SDS011;4446;50.876;4.736;2024-03-17T03:23:19;7.22;;;4.53;;
8819;SDS011;4446;50.876;4.736;2024-03-17T03:25:46;7.38;;;4.90;;
8819;SDS011;4446;50.876;4.736;2024-03-17T03:28:14;6.03;;;4.18;;
8819;SDS011;4446;50.876;4.736;2024-03-17T03:30:41;9.20;;;4.10;;
8819;SDS011;4446;50.876;4.736;2024-03-17T03:33:09;6.65;;;3.95;;
8819;SDS011;4446;50.876;4.736;2024-03-17T03:35:36;7.25;;;4.20;;
8819;SDS011;4446;50.876;4.736;2024-03-17T03:38:02;7.82;;;4.75;;
8819;SDS011;4446;50.876;4.736;2024-03-17T03:40:29;7.72;;;4.05;;
8819;SDS011;4446;50.876;4.736;2024-03-17T03:42:57;6.97;;;4.63;;
8819;SDS011;4446;50.876;4.736;2024-03-17T03:45:24;7.38;;;4.30;;
8819;SDS011;4446;50.876;4.736;2024-03-17T03:47:51;5.72;;;4.32;;
8819;SDS011;4446;50.876;4.736;2024-03-17T03:50:20;7.28;;;4.20;;
8819;SDS011;4446;50.876;4.736;2024-03-17T03:52:48;6.03;;;4.05;;
8819;SDS011;4446;50.876;4.736;2024-03-17T03:55:16;6.68;;;4.22;;
8819;SDS011;4446;50.876;4.736;2024-03-17T03:57:44;5.43;;;4.07;;
8819;SDS011;4446;50.876;4.736;2024-03-17T04:00:13;7.78;;;4.03;;
8819;SDS011;4446;50.876;4.736;2024-03-17T04:02:41;6.90;;;4.20;;
8819;SDS011;4446;50.876;4.736;2024-03-17T04:05:09;6.45;;;3.85;;
8819;SDS011;4446;50.876;4.736;2024-03-17T04:07:38;6.63;;;4.07;;
8819;SDS011;4446;50.876;4.736;2024-03-17T04:10:08;6.40;;;4.03;;
8819;SDS011;4446;50.876;4.736;2024-03-17T04:12:36;6.38;;;4.50;;
8819;SDS011;4446;50.876;4.736;2024-03-17T04:15:03;6.10;;;4.05;;
8819;SDS011;4446;50.876;4.736;2024-03-17T04:17:31;7.53;;;4.38;;
8819;SDS011;4446;50.876;4.736;2024-03-17T04:19:59;6.45;;;3.90;;
8819;SDS011;4446;50.876;4.736;2024-03-17T04:22:26;5.85;;;4.00;;
8819;SDS011;4446;50.876;4.736;2024-03-17T04:24:54;5.53;;;3.95;;
8819;SDS011;4446;50.876;4.736;2024-03-17T04:27:22;6.07;;;4.40;;
8819;SDS011;4446;50.876;4.736;2024-03-17T04:29:49;7.22;;;4.28;;
8819;SDS011;4446;50.876;4.736;2024-03-17T04:32:18;7.00;;;4.00;;
8819;SDS011;4446;50.876;4.736;2024-03-17T04:34:45;7.22;;;4.25;;
8819;SDS011;4446;50.876;4.736;2024-03-17T04:37:13;5.63;;;3.83;;
8819;SDS011;4446;50.876;4.736;2024-03-17T04:39:40;7.28;;;4.05;;
8819;SDS011;4446;50.876;4.736;2024-03-17T04:42:10;6.38;;;3.60;;
8819;SDS011;4446;50.876;4.736;2024-03-17T04:44:37;7.47;;;4.50;;
8819;SDS011;4446;50.876;4.736;2024-03-17T04:47:05;6.70;;;3.92;;
8819;SDS011;4446;50.876;4.736;2024-03-17T04:49:34;7.57;;;3.80;;
8819;SDS011;4446;50.876;4.736;2024-03-17T04:52:01;6.97;;;3.58;;
8819;SDS011;4446;50.876;4.736;2024-03-17T04:54:30;8.20;;;3.90;;
8819;SDS011;4446;50.876;4.736;2024-03-17T04:56:58;5.28;;;3.67;;
8819;SDS011;4446;50.876;4.736;2024-03-17T04:59:26;5.20;;;3.35;;
8819;SDS011;4446;50.876;4.736;2024-03-17T05:01:53;5.75;;;3.70;;
8819;SDS011;4446;50.876;4.736;2024-03-17T05:04:20;5.82;;;3.97;;
8819;SDS011;4446;50.876;4.736;2024-03-17T05:06:48;5.85;;;3.58;;
8819;SDS011;4446;50.876;4.736;2024-03-17T05:09:16;5.72;;;3.60;;
8819;SDS011;4446;50.876;4.736;2024-03-17T05:11:43;5.95;;;3.63;;
8819;SDS011;4446;50.876;4.736;2024-03-17T05:14:10;5.13;;;3.40;;
8819;SDS011;4446;50.876;4.736;2024-03-17T05:16:39;4.97;;;3.72;;
8819;SDS011;4446;50.876;4.736;2024-03-17T05:19:06;6.15;;;3.80;;
8819;SDS011;4446;50.876;4.736;2024-03-17T05:21:34;5.85;;;4.00;;
8819;SDS011;4446;50.876;4.736;2024-03-17T05:24:01;7.90;;;3.53;;
8819;SDS011;4446;50.876;4.736;2024-03-17T05:26:29;4.50;;;3.30;;
8819;SDS011;4446;50.876;4.736;2024-03-17T05:28:56;7.05;;;4.03;;
8819;SDS011;4446;50.876;4.736;2024-03-17T05:31:23;6.32;;;3.40;;
8819;SDS011;4446;50.876;4.736;2024-03-17T05:33:52;6.15;;;2.92;;
8819;SDS011;4446;50.876;4.736;2024-03-17T05:36:19;6.25;;;3.92;;
8819;SDS011;4446;50.876;4.736;2024-03-17T05:38:46;6.75;;;3.67;;
8819;SDS011;4446;50.876;4.736;2024-03-17T05:41:14;6.40;;;3.67;;
8819;SDS011;4446;50.876;4.736;2024-03-17T05:43:41;5.95;;;3.95;;
8819;SDS011;4446;50.876;4.736;2024-03-17T05:46:08;7.53;;;4.10;;
8819;SDS011;4446;50.876;4.736;2024-03-17T05:48:36;7.20;;;3.78;;
8819;SDS011;4446;50.876;4.736;2024-03-17T05:51:05;6.15;;;3.95;;
8819;SDS011;4446;50.876;4.736;2024-03-17T05:53:34;5.93;;;4.38;;
8819;SDS011;4446;50.876;4.736;2024-03-17T05:56:03;7.28;;;4.47;;
8819;SDS011;4446;50.876;4.736;2024-03-17T05:58:32;6.90;;;4.05;;
8819;SDS011;4446;50.876;4.736;2024-03-17T06:01:01;7.60;;;4.13;;
8819;SDS011;4446;50.876;4.736;2024-03-17T06:03:28;7.82;;;4.20;;
8819;SDS011;4446;50.876;4.736;2024-03-17T06:05:58;6.68;;;4.45;;
8819;SDS011;4446;50.876;4.736;2024-03-17T06:08:26;7.13;;;4.35;;
8819;SDS011;4446;50.876;4.736;2024-03-17T06:10:53;8.40;;;4.22;;
8819;SDS011;4446;50.876;4.736;2024-03-17T06:13:22;7.40;;;4.20;;
8819;SDS011;4446;50.876;4.736;2024-03-17T06:15:49;7.57;;;4.55;;
8819;SDS011;4446;50.876;4.736;2024-03-17T06:18:16;7.45;;;4.13;;
8819;SDS011;4446;50.876;4.736;2024-03-17T06:20:44;8.15;;;4.80;;
8819;SDS011;4446;50.876;4.736;2024-03-17T06:23:13;8.30;;;4.53;;
8819;SDS011;4446;50.876;4.736;2024-03-17T06:25:43;7.32;;;4.13;;
8819;SDS011;4446;50.876;4.736;2024-03-17T06:28:11;6.13;;;3.95;;
8819;SDS011;4446;50.876;4.736;2024-03-17T06:30:40;7.22;;;3.78;;
8819;SDS011;4446;50.876;4.736;2024-03-17T06:33:07;10.32;;;3.95;;
8819;SDS011;4446;50.876;4.736;2024-03-17T06:35:37;6.93;;;4.03;;
8819;SDS011;4446;50.876;4.736;2024-03-17T06:38:04;7.55;;;3.92;;
8819;SDS011;4446;50.876;4.736;2024-03-17T06:40:35;8.25;;;4.40;;
8819;SDS011;4446;50.876;4.736;2024-03-17T06:43:03;6.07;;;4.10;;
8819;SDS011;4446;50.876;4.736;2024-03-17T06:45:30;6.32;;;3.38;;
8819;SDS011;4446;50.876;4.736;2024-03-17T06:47:58;7.07;;;3.70;;
8819;SDS011;4446;50.876;4.736;2024-03-17T06:50:25;8.00;;;3.85;;
8819;SDS011;4446;50.876;4.736;2024-03-17T06:52:52;4.97;;;3.55;;
8819;SDS011;4446;50.876;4.736;2024-03-17T06:55:19;5.75;;;3.67;;
8819;SDS011;4446;50.876;4.736;2024-03-17T06:57:46;6.47;;;4.00;;
8819;SDS011;4446;50.876;4.736;2024-03-17T07:00:15;5.63;;;3.58;;
8819;SDS011;4446;50.876;4.736;2024-03-17T07:02:43;6.53;;;4.13;;
8819;SDS011;4446;50.876;4.736;2024-03-17T07:05:11;5.30;;;3.70;;
8819;SDS011;4446;50.876;4.736;2024-03-17T07:07:40;9.00;;;4.13;;
8819;SDS011;4446;50.876;4.736;2024-03-17T07:10:08;5.07;;;3.47;;
8819;SDS011;4446;50.876;4.736;2024-03-17T07:12:36;6.00;;;3.63;;
8819;SDS011;4446;50.876;4.736;2024-03-17T07:15:03;5.63;;;3.83;;
8819;SDS011;4446;50.876;4.736;2024-03-17T07:17:32;5.60;;;3.33;;
8819;SDS011;4446;50.876;4.736;2024-03-17T07:20:00;7.88;;;3.78;;
8819;SDS011;4446;50.876;4.736;2024-03-17T07:22:28;4.95;;;3.60;;
8819;SDS011;4446;50.876;4.736;2024-03-17T07:24:55;5.68;;;3.50;;
8819;SDS011;4446;50.876;4.736;2024-03-17T07:27:25;5.00;;;3.47;;
8819;SDS011;4446;50.876;4.736;2024-03-17T07:29:52;7.35;;;4.00;;
8819;SDS011;4446;50.876;4.736;2024-03-17T07:32:19;8.63;;;4.10;;
8819;SDS011;4446;50.876;4.736;2024-03-17T07:34:49;8.20;;;3.78;;
8819;SDS011;4446;50.876;4.736;2024-03-17T07:37:16;5.15;;;3.55;;
8819;SDS011;4446;50.876;4.736;2024-03-17T07:39:43;4.80;;;3.13;;
8819;SDS011;4446;50.876;4.736;2024-03-17T07:42:14;5.28;;;3.63;;
8819;SDS011;4446;50.876;4.736;2024-03-17T07:44:43;6.93;;;4.03;;
8819;SDS011;4446;50.876;4.736;2024-03-17T07:47:10;7.15;;;3.03;;
8819;SDS011;4446;50.876;4.736;2024-03-17T07:49:37;6.40;;;4.00;;
8819;SDS011;4446;50.876;4.736;2024-03-17T07:52:06;5.63;;;3.42;;
8819;SDS011;4446;50.876;4.736;2024-03-17T07:54:33;6.68;;;3.53;;
8819;SDS011;4446;50.876;4.736;2024-03-17T07:57:02;5.80;;;3.70;;
8819;SDS011;4446;50.876;4.736;2024-03-17T07:59:29;5.18;;;3.97;;
8819;SDS011;4446;50.876;4.736;2024-03-17T08:01:56;6.35;;;3.75;;
8819;SDS011;4446;50.876;4.736;2024-03-17T08:04:23;4.82;;;3.50;;
8819;SDS011;4446;50.876;4.736;2024-03-17T08:06:50;5.07;;;3.63;;
8819;SDS011;4446;50.876;4.736;2024-03-17T08:09:19;6.95;;;4.38;;
8819;SDS011;4446;50.876;4.736;2024-03-17T08:11:47;5.22;;;3.05;;
8819;SDS011;4446;50.876;4.736;2024-03-17T08:14:15;9.05;;;3.92;;
8819;SDS011;4446;50.876;4.736;2024-03-17T08:16:42;5.85;;;3.47;;
8819;SDS011;4446;50.876;4.736;2024-03-17T08:19:08;4.32;;;3.20;;
8819;SDS011;4446;50.876;4.736;2024-03-17T08:21:35;6.82;;;3.25;;
8819;SDS011;4446;50.876;4.736;2024-03-17T08:24:03;5.35;;;3.17;;
8819;SDS011;4446;50.876;4.736;2024-03-17T08:26:32;7.72;;;3.10;;
8819;SDS011;4446;50.876;4.736;2024-03-17T08:28:59;6.10;;;3.40;;
8819;SDS011;4446;50.876;4.736;2024-03-17T08:31:26;4.65;;;3.05;;
8819;SDS011;4446;50.876;4.736;2024-03-17T08:33:53;5.70;;;3.17;;
8819;SDS011;4446;50.876;4.736;2024-03-17T08:36:20;4.18;;;2.78;;
8819;SDS011;4446;50.876;4.736;2024-03-17T08:38:48;4.47;;;2.95;;
8819;SDS011;4446;50.876;4.736;2024-03-17T08:41:15;4.75;;;2.72;;
8819;SDS011;4446;50.876;4.736;2024-03-17T08:43:44;3.70;;;3.00;;
8819;SDS011;4446;50.876;4.736;2024-03-17T08:46:11;4.82;;;3.03;;
8819;SDS011;4446;50.876;4.736;2024-03-17T08:48:39;3.70;;;2.80;;
8819;SDS011;4446;50.876;4.736;2024-03-17T08:51:08;3.13;;;2.30;;
8819;SDS011;4446;50.876;4.736;2024-03-17T08:53:36;3.25;;;2.50;;
8819;SDS011;4446;50.876;4.736;2024-03-17T08:56:04;4.00;;;2.53;;
8819;SDS011;4446;50.876;4.736;2024-03-17T08:58:33;3.80;;;2.50;;
8819;SDS011;4446;50.876;4.736;2024-03-17T09:01:04;4.57;;;2.50;;
8819;SDS011;4446;50.876;4.736;2024-03-17T09:03:32;4.05;;;2.50;;
8819;SDS011;4446;50.876;4.736;2024-03-17T09:05:59;4.20;;;2.30;;
8819;SDS011;4446;50.876;4.736;2024-03-17T09:08:26;4.78;;;2.22;;
8819;SDS011;4446;50.876;4.736;2024-03-17T09:10:54;4.63;;;2.33;;
8819;SDS011;4446;50.876;4.736;2024-03-17T09:13:22;5.28;;;2.60;;
8819;SDS011;4446;50.876;4.736;2024-03-17T09:15:51;3.92;;;2.45;;
8819;SDS011;4446;50.876;4.736;2024-03-17T09:18:20;4.40;;;2.22;;
8819;SDS011;4446;50.876;4.736;2024-03-17T09:20:55;5.75;;;2.40;;
8819;SDS011;4446;50.876;4.736;2024-03-17T09:23:22;4.32;;;2.47;;
8819;SDS011;4446;50.876;4.736;2024-03-17T09:25:55;4.00;;;2.28;;
8819;SDS011;4446;50.876;4.736;2024-03-17T09:28:23;3.63;;;2.03;;
8819;SDS011;4446;50.876;4.736;2024-03-17T09:30:50;2.63;;;1.80;;
8819;SDS011;4446;50.876;4.736;2024-03-17T09:33:17;2.85;;;2.08;;
8819;SDS011;4446;50.876;4.736;2024-03-17T09:35:54;3.15;;;2.22;;
8819;SDS011;4446;50.876;4.736;2024-03-17T09:38:21;3.47;;;2.08;;
8819;SDS011;4446;50.876;4.736;2024-03-17T09:40:48;4.03;;;1.77;;
8819;SDS011;4446;50.876;4.736;2024-03-17T09:43:18;3.58;;;2.20;;
8819;SDS011;4446;50.876;4.736;2024-03-17T09:45:46;4.53;;;1.83;;
8819;SDS011;4446;50.876;4.736;2024-03-17T09:48:14;4.15;;;2.50;;
8819;SDS011;4446;50.876;4.736;2024-03-17T09:50:45;2.20;;;1.92;;
8819;SDS011;4446;50.876;4.736;2024-03-17T09:53:17;2.00;;;1.70;;
8819;SDS011;4446;50.876;4.736;2024-03-17T09:55:50;2.58;;;1.95;;
8819;SDS011;4446;50.876;4.736;2024-03-17T09:58:18;3.70;;;1.83;;
8819;SDS011;4446;50.876;4.736;2024-03-17T10:00:45;3.85;;;1.98;;
8819;SDS011;4446;50.876;4.736;2024-03-17T10:03:12;2.10;;;1.75;;
8819;SDS011;4446;50.876;4.736;2024-03-17T10:06:08;4.68;;;2.15;;
8819;SDS011;4446;50.876;4.736;2024-03-17T10:08:40;4.10;;;2.00;;
8819;SDS011;4446;50.876;4.736;2024-03-17T10:11:13;2.38;;;1.88;;
8819;SDS011;4446;50.876;4.736;2024-03-17T10:13:41;2.42;;;1.80;;
8819;SDS011;4446;50.876;4.736;2024-03-17T10:16:22;4.00;;;1.95;;
8819;SDS011;4446;50.876;4.736;2024-03-17T10:18:50;2.00;;;1.77;;
8819;SDS011;4446;50.876;4.736;2024-03-17T10:21:32;3.38;;;1.80;;
8819;SDS011;4446;50.876;4.736;2024-03-17T10:24:06;3.80;;;2.08;;
8819;SDS011;4446;50.876;4.736;2024-03-17T10:26:41;1.50;;;1.40;;
8819;SDS011;4446;50.876;4.736;2024-03-17T10:29:19;1.92;;;1.73;;
8819;SDS011;4446;50.876;4.736;2024-03-17T10:31:49;3.05;;;1.60;;
8819;SDS011;4446;50.876;4.736;2024-03-17T10:34:17;2.00;;;1.60;;
8819;SDS011;4446;50.876;4.736;2024-03-17T10:36:46;2.55;;;1.85;;
8819;SDS011;4446;50.876;4.736;2024-03-17T10:39:23;2.58;;;1.80;;
8819;SDS011;4446;50.876;4.736;2024-03-17T10:41:59;2.60;;;1.90;;
8819;SDS011;4446;50.876;4.736;2024-03-17T10:44:27;2.53;;;1.73;;
8819;SDS011;4446;50.876;4.736;2024-03-17T10:46:55;2.42;;;2.00;;
8819;SDS011;4446;50.876;4.736;2024-03-17T10:49:24;2.03;;;1.73;;
8819;SDS011;4446;50.876;4.736;2024-03-17T10:51:59;3.90;;;1.67;;
8819;SDS011;4446;50.876;4.736;2024-03-17T10:54:27;3.13;;;1.80;;
8819;SDS011;4446;50.876;4.736;2024-03-17T10:56:55;3.05;;;1.75;;
8819;SDS011;4446;50.876;4.736;2024-03-17T10:59:25;3.13;;;1.60;;
8819;SDS011;4446;50.876;4.736;2024-03-17T11:02:04;3.33;;;2.00;;
8819;SDS011;4446;50.876;4.736;2024-03-17T11:04:48;1.98;;;1.70;;
8819;SDS011;4446;50.876;4.736;2024-03-17T11:07:17;3.70;;;1.92;;
8819;SDS011;4446;50.876;4.736;2024-03-17T11:09:48;3.10;;;2.00;;
8819;SDS011;4446;50.876;4.736;2024-03-17T11:21:02;2.75;;;1.63;;
8819;SDS011;4446;50.876;4.736;2024-03-17T11:23:37;2.78;;;1.65;;
8819;SDS011;4446;50.876;4.736;2024-03-17T11:26:05;2.40;;;1.85;;
8819;SDS011;4446;50.876;4.736;2024-03-17T11:28:48;2.03;;;1.80;;
8819;SDS011;4446;50.876;4.736;2024-03-17T11:31:33;4.10;;;2.08;;
8819;SDS011;4446;50.876;4.736;2024-03-17T11:34:06;2.10;;;1.80;;
8819;SDS011;4446;50.876;4.736;2024-03-17T11:36:50;1.85;;;1.60;;
8819;SDS011;4446;50.876;4.736;2024-03-17T11:39:17;1.70;;;1.60;;
8819;SDS011;4446;50.876;4.736;2024-03-17T11:41:46;2.50;;;1.90;;
8819;SDS011;4446;50.876;4.736;2024-03-17T11:44:14;1.83;;;1.73;;
8819;SDS011;4446;50.876;4.736;2024-03-17T11:46:52;3.20;;;2.03;;
8819;SDS011;4446;50.876;4.736;2024-03-17T11:49:21;2.00;;;1.80;;
8819;SDS011;4446;50.876;4.736;2024-03-17T11:51:49;5.75;;;2.00;;
8819;SDS011;4446;50.876;4.736;2024-03-17T11:54:16;2.60;;;1.70;;
8819;SDS011;4446;50.876;4.736;2024-03-17T11:56:45;2.80;;;2.00;;
8819;SDS011;4446;50.876;4.736;2024-03-17T11:59:14;4.40;;;2.08;;
8819;SDS011;4446;50.876;4.736;2024-03-17T12:01:42;3.30;;;2.10;;
8819;SDS011;4446;50.876;4.736;2024-03-17T12:04:11;2.45;;;1.90;;
8819;SDS011;4446;50.876;4.736;2024-03-17T12:06:44;2.80;;;2.03;;
8819;SDS011;4446;50.876;4.736;2024-03-17T12:09:21;3.15;;;2.00;;
8819;SDS011;4446;50.876;4.736;2024-03-17T12:11:49;3.88;;;2.40;;
8819;SDS011;4446;50.876;4.736;2024-03-17T12:14:17;2.80;;;2.22;;
8819;SDS011;4446;50.876;4.736;2024-03-17T12:16:49;2.42;;;2.22;;
8819;SDS011;4446;50.876;4.736;2024-03-17T12:19:16;3.30;;;2.25;;
8819;SDS011;4446;50.876;4.736;2024-03-17T12:21:44;3.03;;;2.28;;
8819;SDS011;4446;50.876;4.736;2024-03-17T12:24:17;2.50;;;1.80;;
8819;SDS011;4446;50.876;4.736;2024-03-17T12:26:46;3.15;;;2.10;;
8819;SDS011;4446;50.876;4.736;2024-03-17T12:29:22;2.78;;;2.00;;
8819;SDS011;4446;50.876;4.736;2024-03-17T12:31:52;3.60;;;2.13;;
8819;SDS011;4446;50.876;4.736;2024-03-17T12:34:19;2.95;;;2.10;;
8819;SDS011;4446;50.876;4.736;2024-03-17T12:36:46;2.30;;;2.10;;
8819;SDS011;4446;50.876;4.736;2024-03-17T12:39:16;2.85;;;2.17;;
8819;SDS011;4446;50.876;4.736;2024-03-17T12:41:52;2.08;;;1.95;;
8819;SDS011;4446;50.876;4.736;2024-03-17T12:44:27;4.22;;;2.20;;
8819;SDS011;4446;50.876;4.736;2024-03-17T12:46:55;3.22;;;2.00;;
8819;SDS011;4446;50.876;4.736;2024-03-17T12:49:22;4.00;;;2.10;;
8819;SDS011;4446;50.876;4.736;2024-03-17T12:51:51;1.80;;;1.70;;
8819;SDS011;4446;50.876;4.736;2024-03-17T12:54:19;2.33;;;1.80;;
8819;SDS011;4446;50.876;4.736;2024-03-17T12:56:51;2.47;;;2.28;;
8819;SDS011;4446;50.876;4.736;2024-03-17T12:59:47;2.42;;;2.22;;
8819;SDS011;4446;50.876;4.736;2024-03-17T13:02:34;2.33;;;2.13;;
8819;SDS011;4446;50.876;4.736;2024-03-17T13:05:07;2.45;;;2.25;;
8819;SDS011;4446;50.876;4.736;2024-03-17T13:07:40;4.03;;;2.35;;
8819;SDS011;4446;50.876;4.736;2024-03-17T13:10:07;2.40;;;2.20;;
8819;SDS011;4446;50.876;4.736;2024-03-17T13:12:37;2.70;;;2.38;;
8819;SDS011;4446;50.876;4.736;2024-03-17T13:15:04;2.42;;;2.13;;
8819;SDS011;4446;50.876;4.736;2024-03-17T13:17:31;2.55;;;2.30;;
8819;SDS011;4446;50.876;4.736;2024-03-17T13:19:59;2.40;;;2.20;;
8819;SDS011;4446;50.876;4.736;2024-03-17T13:22:27;3.15;;;2.85;;
8819;SDS011;4446;50.876;4.736;2024-03-17T13:24:54;3.00;;;2.47;;
8819;SDS011;4446;50.876;4.736;2024-03-17T13:27:21;3.55;;;2.33;;
8819;SDS011;4446;50.876;4.736;2024-03-17T13:29:50;2.08;;;1.88;;
8819;SDS011;4446;50.876;4.736;2024-03-17T13:32:18;2.20;;;2.00;;
8819;SDS011;4446;50.876;4.736;2024-03-17T13:34:45;2.05;;;1.95;;
8819;SDS011;4446;50.876;4.736;2024-03-17T13:37:12;2.78;;;1.80;;
8819;SDS011;4446;50.876;4.736;2024-03-17T13:39:39;1.80;;;1.70;;
8819;SDS011;4446;50.876;4.736;2024-03-17T13:42:06;2.28;;;2.08;;
8819;SDS011;4446;50.876;4.736;2024-03-17T13:44:40;2.38;;;1.80;;
8819;SDS011;4446;50.876;4.736;2024-03-17T13:47:08;2.08;;;1.80;;
8819;SDS011;4446;50.876;4.736;2024-03-17T13:49:37;1.83;;;1.73;;
8819;SDS011;4446;50.876;4.736;2024-03-17T13:52:05;2.78;;;2.00;;
8819;SDS011;4446;50.876;4.736;2024-03-17T13:54:34;2.25;;;1.83;;
8819;SDS011;4446;50.876;4.736;2024-03-17T13:57:08;2.22;;;1.60;;
8819;SDS011;4446;50.876;4.736;2024-03-17T13:59:35;2.45;;;2.20;;
8819;SDS011;4446;50.876;4.736;2024-03-17T14:02:02;4.30;;;2.10;;
8819;SDS011;4446;50.876;4.736;2024-03-17T14:04:31;2.00;;;1.80;;
8819;SDS011;4446;50.876;4.736;2024-03-17T14:06:58;1.88;;;1.77;;
8819;SDS011;4446;50.876;4.736;2024-03-17T14:09:29;2.97;;;1.70;;
8819;SDS011;4446;50.876;4.736;2024-03-17T14:11:57;1.95;;;1.80;;
8819;SDS011;4446;50.876;4.736;2024-03-17T14:14:24;4.43;;;1.77;;
8819;SDS011;4446;50.876;4.736;2024-03-17T14:16:51;2.15;;;1.95;;
8819;SDS011;4446;50.876;4.736;2024-03-17T14:19:18;3.33;;;1.52;;
8819;SDS011;4446;50.876;4.736;2024-03-17T14:21:47;2.53;;;2.00;;
8819;SDS011;4446;50.876;4.736;2024-03-17T14:24:14;1.85;;;1.52;;
8819;SDS011;4446;50.876;4.736;2024-03-17T14:26:41;2.25;;;1.60;;
8819;SDS011;4446;50.876;4.736;2024-03-17T14:29:08;1.83;;;1.55;;
8819;SDS011;4446;50.876;4.736;2024-03-17T14:31:35;2.65;;;1.65;;
8819;SDS011;4446;50.876;4.736;2024-03-17T14:34:02;2.90;;;1.65;;
8819;SDS011;4446;50.876;4.736;2024-03-17T14:36:30;2.45;;;1.65;;
8819;SDS011;4446;50.876;4.736;2024-03-17T14:38:59;1.98;;;1.65;;
8819;SDS011;4446;50.876;4.736;2024-03-17T14:41:30;2.78;;;1.60;;
8819;SDS011;4446;50.876;4.736;2024-03-17T14:43:57;1.98;;;1.70;;
8819;SDS011;4446;50.876;4.736;2024-03-17T14:46:25;3.22;;;2.00;;
8819;SDS011;4446;50.876;4.736;2024-03-17T14:48:53;2.60;;;1.55;;
8819;SDS011;4446;50.876;4.736;2024-03-17T14:51:21;3.05;;;1.75;;
8819;SDS011;4446;50.876;4.736;2024-03-17T14:53:48;1.85;;;1.60;;
8819;SDS011;4446;50.876;4.736;2024-03-17T14:56:20;1.60;;;1.50;;
8819;SDS011;4446;50.876;4.736;2024-03-17T14:58:47;2.30;;;1.60;;
8819;SDS011;4446;50.876;4.736;2024-03-17T15:01:15;2.00;;;1.90;;
8819;SDS011;4446;50.876;4.736;2024-03-17T15:03:43;3.67;;;1.70;;
8819;SDS011;4446;50.876;4.736;2024-03-17T15:06:11;2.85;;;1.92;;
8819;SDS011;4446;50.876;4.736;2024-03-17T15:08:40;2.20;;;2.03;;
8819;SDS011;4446;50.876;4.736;2024-03-17T15:11:07;2.30;;;2.10;;
8819;SDS011;4446;50.876;4.736;2024-03-17T15:13:36;5.03;;;2.50;;
8819;SDS011;4446;50.876;4.736;2024-03-17T15:16:04;2.28;;;2.10;;
8819;SDS011;4446;50.876;4.736;2024-03-17T15:18:34;2.08;;;1.88;;
8819;SDS011;4446;50.876;4.736;2024-03-17T15:21:02;2.30;;;2.10;;
8819;SDS011;4446;50.876;4.736;2024-03-17T15:23:30;4.72;;;1.88;;
8819;SDS011;4446;50.876;4.736;2024-03-17T15:26:00;3.47;;;1.73;;
8819;SDS011;4446;50.876;4.736;2024-03-17T15:28:32;2.03;;;1.83;;
8819;SDS011;4446;50.876;4.736;2024-03-17T15:31:03;1.70;;;1.60;;
8819;SDS011;4446;50.876;4.736;2024-03-17T15:33:31;3.33;;;1.75;;